Terminal Aerodrome Forecast
Issued by NWS Sterling, VA

Current Version | Previous Version | Graphics & Text | Print | Product List | Glossary On
Versions: 1 2 3 4 5 6 7 8 9 10 11 12 13 14
272
FTUS41 KLWX 201126
TAFMRB
TAF
KMRB 201126Z 2012/2112 31006KT P6SM SCT150
     FM202100 23005KT P6SM BKN070
     FM202300 11004KT P6SM OVC070
     FM210300 VRB03KT 3SM -SHRA BR OVC060
     FM210700 00000KT 3SM BR OVC025=

USA.gov is the U.S. government's official web portal to all federal, state and local government web resources and services.